Terminal Aerodrome Forecast
Issued by NWS

Current Version | Previous Version | Text Only | Print | Product List | Glossary On
Versions: 1 2 3 4 5 6 7 8 9 10 11 12 13 14
000
FTUS46 KSGX 161123
TAFONT
TAF
KONT 161123Z 1612/1718 VRB04KT P6SM BKN200
     FM162100 26009KT P6SM SCT200
     FM170200 VRB05KT P6SM BKN200=

USA.gov is the U.S. government's official web portal to all federal, state and local government web resources and services.